createdAt,value
2023-04-20T00:04:29.258Z,9.20
2023-04-20T00:09:31.286Z,8.30
2023-04-20T00:14:32.512Z,8.40
2023-04-20T00:19:33.723Z,8.20
2023-04-20T00:24:35.597Z,5.90
2023-04-20T00:29:36.862Z,7.60
2023-04-20T00:34:38.545Z,7.30
2023-04-20T00:39:40.623Z,7.70
2023-04-20T00:44:41.768Z,7.50
2023-04-20T00:49:43.056Z,7.30
2023-04-20T00:54:44.345Z,7.50
2023-04-20T00:59:45.961Z,7.40
2023-04-20T01:04:47.500Z,7.40
2023-04-20T01:09:48.666Z,7.20
2023-04-20T01:14:49.836Z,7.60
2023-04-20T01:19:51.104Z,7.50
2023-04-20T01:24:52.674Z,8.00
2023-04-20T01:29:53.901Z,8.40
2023-04-20T01:34:56.256Z,8.10
2023-04-20T01:39:57.983Z,8.70
2023-04-20T01:44:59.447Z,8.20
2023-04-20T01:50:00.690Z,9.10
2023-04-20T01:55:01.915Z,9.00
2023-04-20T02:00:04.466Z,8.20
2023-04-20T02:05:06.715Z,8.50
2023-04-20T02:10:08.915Z,8.10
2023-04-20T02:15:10.380Z,8.80
2023-04-20T02:20:14.733Z,8.70
2023-04-20T02:25:15.958Z,9.90
2023-04-20T02:30:17.360Z,8.90
2023-04-20T02:35:19.295Z,8.60
2023-04-20T02:40:20.661Z,8.60
2023-04-20T02:45:21.899Z,8.30
2023-04-20T02:50:23.557Z,8.60
2023-04-20T02:55:25.007Z,8.60
2023-04-20T03:00:26.278Z,8.00
2023-04-20T03:05:27.495Z,8.20
2023-04-20T03:10:28.915Z,7.90
2023-04-20T03:15:30.129Z,8.40
2023-04-20T03:20:31.887Z,9.60
2023-04-20T03:25:33.106Z,10.00
2023-04-20T03:30:34.346Z,9.10
2023-04-20T03:35:38.591Z,8.80
2023-04-20T03:40:39.904Z,7.20
2023-04-20T03:45:41.340Z,8.60
2023-04-20T03:50:42.569Z,8.00
2023-04-20T03:55:43.764Z,9.30
2023-04-20T04:00:45.001Z,8.80
2023-04-20T04:05:46.143Z,8.80
2023-04-20T04:10:47.504Z,8.20
2023-04-20T04:15:49.531Z,8.30
2023-04-20T04:20:51.000Z,8.40
2023-04-20T04:25:52.264Z,8.80
2023-04-20T04:30:53.526Z,9.30
2023-04-20T04:35:54.762Z,10.30
2023-04-20T04:40:56.668Z,8.80
2023-04-20T04:45:57.949Z,10.10
2023-04-20T04:50:59.156Z,8.90
2023-04-20T04:56:00.439Z,9.00
2023-04-20T05:01:01.667Z,8.50
2023-04-20T05:06:03.062Z,9.00
2023-04-20T05:11:04.370Z,8.50
2023-04-20T05:16:05.925Z,8.20
2023-04-20T05:21:07.458Z,8.60
2023-04-20T05:26:08.927Z,8.70
2023-04-20T05:31:10.677Z,8.00
2023-04-20T05:36:12.450Z,9.10
2023-04-20T05:41:13.997Z,9.50
2023-04-20T05:46:15.357Z,9.60
2023-04-20T05:51:16.687Z,10.20
2023-04-20T05:56:17.966Z,9.90
2023-04-20T06:01:19.290Z,9.90
2023-04-20T06:06:20.566Z,8.70
2023-04-20T06:11:21.933Z,8.80
2023-04-20T06:16:23.385Z,8.90
2023-04-20T06:21:26.607Z,8.80
2023-04-20T06:26:27.926Z,8.50
2023-04-20T06:31:29.147Z,8.50
2023-04-20T06:36:31.037Z,9.50
2023-04-20T06:41:32.252Z,8.60
2023-04-20T06:46:33.829Z,8.50
2023-04-20T06:51:35.155Z,8.50
2023-04-20T06:56:36.442Z,8.20
2023-04-20T07:01:37.741Z,8.10
2023-04-20T07:06:39.150Z,8.80
2023-04-20T07:11:40.512Z,9.30
2023-04-20T07:16:42.064Z,9.70
2023-04-20T07:21:43.786Z,8.90
2023-04-20T07:26:45.065Z,8.50
2023-04-20T07:31:46.265Z,8.70
2023-04-20T07:36:47.607Z,8.20
2023-04-20T07:41:48.920Z,8.70
2023-04-20T07:46:50.250Z,8.10
2023-04-20T07:51:51.470Z,7.90
2023-04-20T07:56:54.093Z,7.60
2023-04-20T08:02:00.888Z,7.40
2023-04-20T08:07:02.308Z,8.10
2023-04-20T08:12:04.850Z,7.50
2023-04-20T08:17:07.527Z,7.50
2023-04-20T08:22:11.507Z,8.00
2023-04-20T08:27:12.985Z,7.50
2023-04-20T08:32:14.928Z,7.60
2023-04-20T08:37:16.317Z,8.70
2023-04-20T08:42:17.714Z,7.60
2023-04-20T08:47:20.440Z,7.40
2023-04-20T08:52:21.955Z,7.40
2023-04-20T08:57:23.848Z,6.30
2023-04-20T09:02:25.396Z,7.30
2023-04-20T09:07:26.765Z,7.20
2023-04-20T09:12:28.418Z,6.80
2023-04-20T09:17:33.591Z,6.70
2023-04-20T09:22:36.900Z,6.00
2023-04-20T09:27:38.108Z,6.70
2023-04-20T09:32:39.647Z,6.60
2023-04-20T09:37:48.652Z,6.30
2023-04-20T09:42:54.201Z,6.40
2023-04-20T09:47:56.881Z,6.00
2023-04-20T09:53:00.123Z,6.30
2023-04-20T09:58:04.014Z,5.80
2023-04-20T10:03:08.419Z,6.20
2023-04-20T10:08:10.415Z,6.40
2023-04-20T10:13:11.818Z,5.90
2023-04-20T10:18:24.182Z,5.90
2023-04-20T10:23:25.708Z,4.90
2023-04-20T10:28:44.161Z,4.90
2023-04-20T10:33:54.383Z,5.10
2023-04-20T10:38:57.322Z,5.40
2023-04-20T10:44:09.496Z,5.70
2023-04-20T10:49:10.663Z,5.30
2023-04-20T10:54:11.994Z,4.90
2023-04-20T11:04:19.059Z,4.80
2023-04-20T11:09:28.128Z,4.70
2023-04-20T11:14:32.979Z,5.20
2023-04-20T11:19:36.456Z,5.30
2023-04-20T11:24:40.471Z,4.80
2023-04-20T11:29:41.720Z,5.30
2023-04-20T11:34:43.482Z,5.20
2023-04-20T11:39:46.193Z,5.30
2023-04-20T11:44:47.489Z,5.40
2023-04-20T11:49:48.666Z,5.30
2023-04-20T11:54:50.305Z,5.40
2023-04-20T11:59:51.505Z,6.20
2023-04-20T12:04:52.789Z,6.20
2023-04-20T12:09:54.068Z,5.80
2023-04-20T12:14:55.310Z,5.10
2023-04-20T12:19:57.180Z,5.80
2023-04-20T12:24:58.402Z,5.70
2023-04-20T12:29:59.598Z,5.50
2023-04-20T12:35:00.996Z,5.90
2023-04-20T12:40:05.696Z,6.10
2023-04-20T12:45:07.896Z,5.90
2023-04-20T12:50:09.973Z,6.00
2023-04-20T12:55:11.950Z,6.40
2023-04-20T13:00:14.662Z,5.80
2023-04-20T13:05:16.642Z,6.00
2023-04-20T13:10:17.846Z,6.60
2023-04-20T13:15:32.065Z,5.90
2023-04-20T13:20:40.494Z,5.90
2023-04-20T13:25:41.742Z,4.60
2023-04-20T13:30:43.555Z,6.70
2023-04-20T13:35:45.439Z,6.00
2023-04-20T13:40:47.590Z,6.10
2023-04-20T13:45:49.209Z,6.60
2023-04-20T13:50:50.763Z,7.10
2023-04-20T13:55:52.198Z,7.40
2023-04-20T14:00:53.984Z,6.50
2023-04-20T14:05:55.228Z,7.00
2023-04-20T14:10:56.456Z,7.10
2023-04-20T14:15:57.758Z,6.20
2023-04-20T14:20:58.958Z,7.50
2023-04-20T14:26:00.406Z,7.50
2023-04-20T14:31:02.282Z,7.20
2023-04-20T14:36:03.689Z,6.70
2023-04-20T14:41:05.059Z,7.00
2023-04-20T14:46:06.767Z,7.50
2023-04-20T14:51:08.158Z,7.20
2023-04-20T14:56:09.326Z,8.00
2023-04-20T15:01:10.662Z,7.90
2023-04-20T15:06:11.902Z,6.90
2023-04-20T15:11:13.062Z,7.30
2023-04-20T15:16:15.059Z,7.40
2023-04-20T15:21:16.324Z,6.20
2023-04-20T15:26:17.804Z,7.20
2023-04-20T15:31:19.108Z,6.80
2023-04-20T15:36:20.581Z,6.60
2023-04-20T15:41:21.897Z,7.60
2023-04-20T15:46:25.194Z,7.20
2023-04-20T15:51:27.316Z,7.20
2023-04-20T15:56:28.515Z,6.40
2023-04-20T16:01:29.934Z,6.60
2023-04-20T16:06:31.332Z,6.60
2023-04-20T16:11:34.313Z,5.90
2023-04-20T16:16:35.547Z,6.40
2023-04-20T16:21:36.770Z,7.20
2023-04-20T16:26:39.002Z,7.30
2023-04-20T16:31:41.414Z,7.50
2023-04-20T16:36:43.511Z,6.90
2023-04-20T16:41:44.850Z,7.30
2023-04-20T16:46:50.568Z,7.30
2023-04-20T16:51:51.887Z,6.80
2023-04-20T16:56:53.134Z,7.30
2023-04-20T17:01:54.397Z,7.60
2023-04-20T17:06:55.563Z,7.90
2023-04-20T17:11:58.690Z,7.10
2023-04-20T17:17:00.051Z,6.40
2023-04-20T17:22:02.855Z,7.60
2023-04-20T17:27:04.134Z,6.90
2023-04-20T17:32:05.492Z,7.60
2023-04-20T17:37:06.731Z,8.10
2023-04-20T17:42:10.035Z,8.70
2023-04-20T17:47:14.057Z,8.20
2023-04-20T17:52:18.714Z,8.00
2023-04-20T17:57:20.165Z,7.70
2023-04-20T18:02:23.902Z,7.70
2023-04-20T18:07:26.654Z,8.00
2023-04-20T18:12:27.803Z,9.30
2023-04-20T18:17:29.264Z,9.80
2023-04-20T18:22:36.090Z,10.70
2023-04-20T18:27:37.498Z,11.00
2023-04-20T18:32:39.798Z,11.30
2023-04-20T18:37:41.148Z,10.70
2023-04-20T18:42:42.417Z,14.30
2023-04-20T18:47:43.618Z,26.50
2023-04-20T18:52:45.228Z,18.60
2023-04-20T18:57:46.482Z,23.60
2023-04-20T19:02:47.872Z,21.50
2023-04-20T19:07:49.192Z,18.90
2023-04-20T19:12:50.442Z,16.40
2023-04-20T19:17:54.880Z,15.50
2023-04-20T19:22:56.206Z,21.10
2023-04-20T19:27:58.044Z,14.50
2023-04-20T19:33:01.632Z,12.60
2023-04-20T19:38:03.285Z,13.80
2023-04-20T19:43:04.494Z,14.40
2023-04-20T19:48:05.827Z,12.00
2023-04-20T19:53:07.321Z,11.70
2023-04-20T19:58:09.854Z,11.60
2023-04-20T20:03:14.093Z,11.40
2023-04-20T20:08:16.111Z,11.20
2023-04-20T20:13:17.809Z,11.90
2023-04-20T20:18:19.833Z,12.50
2023-04-20T20:23:21.200Z,11.60
2023-04-20T20:28:22.370Z,11.30
2023-04-20T20:33:23.497Z,7.60
2023-04-20T20:38:24.674Z,11.50
2023-04-20T20:43:27.752Z,10.80
2023-04-20T20:48:29.025Z,10.20
2023-04-20T20:53:30.284Z,11.40
2023-04-20T20:58:31.563Z,12.70
2023-04-20T21:03:33.060Z,11.90
2023-04-20T21:08:34.503Z,12.00
2023-04-20T21:13:35.777Z,11.60
2023-04-20T21:18:36.986Z,10.60
2023-04-20T21:23:38.281Z,11.70
2023-04-20T21:28:39.558Z,11.20
2023-04-20T21:33:40.987Z,10.40
2023-04-20T21:38:42.232Z,10.50
2023-04-20T21:43:43.665Z,12.10
2023-04-20T21:48:45.125Z,11.80
2023-04-20T21:53:46.491Z,10.30
2023-04-20T21:58:47.701Z,10.50
2023-04-20T22:03:49.282Z,11.40
2023-04-20T22:08:50.798Z,10.70
2023-04-20T22:13:52.235Z,10.20
2023-04-20T22:18:53.714Z,9.70
2023-04-20T22:23:55.043Z,9.40
2023-04-20T22:28:56.280Z,8.90
2023-04-20T22:33:57.605Z,9.90
2023-04-20T22:38:58.870Z,9.20
2023-04-20T22:44:00.546Z,9.90
2023-04-20T22:49:01.845Z,8.90
2023-04-20T22:54:03.811Z,9.90
2023-04-20T22:59:05.290Z,9.80
2023-04-20T23:04:06.817Z,9.80
2023-04-20T23:09:09.520Z,10.40
2023-04-20T23:14:10.772Z,11.50
2023-04-20T23:19:11.990Z,10.70
2023-04-20T23:24:13.138Z,10.10
2023-04-20T23:29:14.299Z,12.40
2023-04-20T23:34:15.489Z,14.10
2023-04-20T23:39:16.947Z,13.30
2023-04-20T23:44:19.054Z,14.30
2023-04-20T23:49:20.436Z,12.30
2023-04-20T23:54:21.827Z,10.50
2023-04-20T23:59:23.078Z,9.50
